Time;durP1;ratioP1;P1;durP2;ratioP2;P2;SDS_P1;SDS_P2;PMS_P1;PMS_P2;Temp;Humidity;BMP_temperature;BMP_pressure;BME280_temperature;BME280_humidity;BME280_pressure;Samples;Min_cycle;Max_cycle;Signal;HPM_P1;HPM_P2
2021/01/10 00:00:39;;;;;;;31.30;20.25;;;;;;;;;;5115906;28;20208;-49
2021/01/10 00:03:08;;;;;;;39.42;22.30;;;;;;;;;;5115931;28;20235;-55
2021/01/10 00:05:37;;;;;;;39.90;21.42;;;;;;;;;;5116478;28;20199;-51
2021/01/10 00:08:05;;;;;;;31.30;19.63;;;;;;;;;;5116681;28;20189;-54
2021/01/10 00:10:33;;;;;;;42.10;21.33;;;;;;;;;;5116712;28;20206;-59
2021/01/10 00:13:05;;;;;;;41.08;21.25;;;;;;;;;;5116839;28;20360;-54
2021/01/10 00:15:33;;;;;;;34.88;21.20;;;;;;;;;;5133993;28;20187;-50
2021/01/10 00:18:00;;;;;;;42.08;23.33;;;;;;;;;;5136551;28;20199;-46
2021/01/10 00:20:30;;;;;;;42.67;22.83;;;;;;;;;;5133282;28;20195;-50
2021/01/10 00:22:59;;;;;;;39.17;23.95;;;;;;;;;;5130475;28;20229;-53
2021/01/10 00:25:26;;;;;;;43.25;22.23;;;;;;;;;;5135835;28;20624;-51
2021/01/10 00:28:01;;;;;;;37.85;21.92;;;;;;;;;;5135156;28;20188;-52
2021/01/10 00:30:28;;;;;;;37.00;21.27;;;;;;;;;;5128650;28;20195;-52
2021/01/10 00:32:55;;;;;;;32.42;20.35;;;;;;;;;;5148561;28;20285;-48
2021/01/10 00:35:23;;;;;;;33.90;20.38;;;;;;;;;;5151294;27;20207;-52
2021/01/10 00:37:51;;;;;;;38.90;22.45;;;;;;;;;;5125114;28;20198;-49
2021/01/10 00:40:25;;;;;;;39.63;23.73;;;;;;;;;;5116929;28;20216;-53
2021/01/10 00:42:52;;;;;;;42.75;23.40;;;;;;;;;;5127792;28;20225;-51
2021/01/10 00:45:21;;;;;;;49.88;25.70;;;;;;;;;;5115109;28;20214;-55
2021/01/10 00:47:48;;;;;;;39.97;22.45;;;;;;;;;;5116033;28;20199;-51
2021/01/10 00:50:15;;;;;;;41.72;21.40;;;;;;;;;;5123821;28;20175;-48
2021/01/10 00:53:08;;;;;;;35.85;19.20;;;;;;;;;;5136332;28;20208;-54
2021/01/10 00:55:35;;;;;;;35.30;20.38;;;;;;;;;;5136608;28;20199;-50
2021/01/10 00:58:01;;;;;;;33.92;21.40;;;;;;;;;;5135247;27;20225;-56
2021/01/10 01:00:37;;;;;;;35.83;20.85;;;;;;;;;;5122749;28;20196;-50
2021/01/10 01:03:04;;;;;;;33.53;19.60;;;;;;;;;;5121388;28;20269;-46
2021/01/10 01:05:31;;;;;;;35.47;20.33;;;;;;;;;;5118605;28;20215;-54
2021/01/10 01:07:58;;;;;;;33.65;21.58;;;;;;;;;;5135119;28;20226;-54
2021/01/10 01:10:24;;;;;;;32.42;19.80;;;;;;;;;;5139304;28;20203;-55
2021/01/10 01:12:51;;;;;;;32.67;19.10;;;;;;;;;;5125043;28;20218;-48
2021/01/10 01:15:23;;;;;;;29.98;18.73;;;;;;;;;;5135599;28;20225;-47
2021/01/10 01:17:51;;;;;;;34.15;18.45;;;;;;;;;;5131361;28;20238;-46
2021/01/10 01:20:18;;;;;;;27.05;17.65;;;;;;;;;;5139735;28;20212;-56
2021/01/10 01:22:45;;;;;;;30.05;18.58;;;;;;;;;;5140115;28;20489;-56
2021/01/10 01:25:13;;;;;;;31.50;19.13;;;;;;;;;;5138620;28;20203;-51
2021/01/10 01:27:43;;;;;;;35.88;19.50;;;;;;;;;;5119664;28;20199;-57
2021/01/10 01:30:10;;;;;;;32.65;20.13;;;;;;;;;;5118465;28;20206;-51
2021/01/10 01:32:37;;;;;;;34.40;21.40;;;;;;;;;;5118998;28;20217;-51
2021/01/10 01:35:08;;;;;;;39.03;21.30;;;;;;;;;;5119131;28;20192;-48
2021/01/10 01:37:35;;;;;;;32.28;18.38;;;;;;;;;;5119088;28;20251;-49
2021/01/10 01:40:02;;;;;;;37.28;19.35;;;;;;;;;;5117953;28;20177;-48
2021/01/10 01:42:57;;;;;;;31.70;19.75;;;;;;;;;;5118389;28;20227;-50
2021/01/10 01:45:24;;;;;;;29.55;20.25;;;;;;;;;;5118689;28;20233;-52
2021/01/10 01:47:51;;;;;;;36.53;20.40;;;;;;;;;;5118624;28;20203;-45
2021/01/10 01:50:19;;;;;;;30.63;19.30;;;;;;;;;;5118376;28;20219;-51
2021/01/10 01:52:46;;;;;;;31.73;20.15;;;;;;;;;;5130625;28;20222;-51
2021/01/10 01:55:13;;;;;;;33.60;21.23;;;;;;;;;;5138777;28;20200;-53
2021/01/10 01:57:44;;;;;;;32.45;20.88;;;;;;;;;;5138671;28;20214;-53
2021/01/10 02:00:11;;;;;;;35.45;21.13;;;;;;;;;;5139089;28;20206;-50
2021/01/10 02:02:38;;;;;;;40.28;22.17;;;;;;;;;;5138369;28;20219;-53
2021/01/10 02:05:07;;;;;;;43.67;21.75;;;;;;;;;;5153623;27;20186;-50
2021/01/10 02:07:40;;;;;;;40.80;22.65;;;;;;;;;;5138130;28;20257;-52
2021/01/10 02:10:11;;;;;;;42.70;22.17;;;;;;;;;;5130950;28;20247;-52
2021/01/10 02:12:42;;;;;;;53.70;22.90;;;;;;;;;;5135770;28;20214;-45
2021/01/10 02:15:10;;;;;;;46.80;25.05;;;;;;;;;;5133515;28;20238;-48
2021/01/10 02:17:37;;;;;;;46.60;23.50;;;;;;;;;;5138302;28;20232;-52
2021/01/10 02:20:22;;;;;;;46.50;26.10;;;;;;;;;;5125846;28;20200;-49
2021/01/10 02:22:51;;;;;;;51.83;26.98;;;;;;;;;;5126011;28;20309;-49
2021/01/10 02:25:19;;;;;;;54.95;26.20;;;;;;;;;;5135333;28;20633;-55
2021/01/10 02:27:51;;;;;;;45.63;25.70;;;;;;;;;;5137792;28;20192;-52
2021/01/10 02:30:19;;;;;;;49.05;27.00;;;;;;;;;;5137374;28;20199;-46
2021/01/10 02:32:47;;;;;;;56.58;28.90;;;;;;;;;;5137319;28;20203;-51
2021/01/10 02:35:16;;;;;;;58.55;27.58;;;;;;;;;;5136505;27;20205;-49
2021/01/10 02:37:46;;;;;;;58.10;26.80;;;;;;;;;;5137561;28;20200;-43
2021/01/10 02:40:19;;;;;;;53.88;27.67;;;;;;;;;;5137165;28;20195;-51
2021/01/10 02:43:01;;;;;;;50.60;27.65;;;;;;;;;;5134929;27;20209;-49
2021/01/10 02:45:27;;;;;;;55.58;29.35;;;;;;;;;;5137013;28;20206;-51
2021/01/10 02:47:54;;;;;;;54.08;26.40;;;;;;;;;;5137460;28;20191;-48
2021/01/10 02:50:48;;;;;;;58.85;28.33;;;;;;;;;;5138611;27;20204;-51
2021/01/10 02:53:15;;;;;;;61.10;29.65;;;;;;;;;;5116983;28;20226;-48
2021/01/10 02:55:42;;;;;;;59.83;28.15;;;;;;;;;;5131884;28;20224;-46
2021/01/10 02:58:13;;;;;;;49.70;28.63;;;;;;;;;;5137605;28;20198;-48
2021/01/10 03:00:41;;;;;;;49.55;27.02;;;;;;;;;;5137560;28;20209;-52
2021/01/10 03:03:08;;;;;;;52.28;24.35;;;;;;;;;;5137523;28;20223;-54
2021/01/10 03:05:40;;;;;;;57.00;26.17;;;;;;;;;;5137321;28;20187;-55
2021/01/10 03:08:08;;;;;;;50.60;27.17;;;;;;;;;;5136904;28;20205;-53
2021/01/10 03:10:35;;;;;;;54.13;27.98;;;;;;;;;;5137251;28;20225;-57
2021/01/10 03:13:17;;;;;;;49.05;25.55;;;;;;;;;;5137322;28;20202;-46
2021/01/10 03:15:45;;;;;;;50.70;25.08;;;;;;;;;;5135374;28;20227;-55
2021/01/10 03:18:17;;;;;;;48.85;26.13;;;;;;;;;;5137259;28;20231;-53
2021/01/10 03:21:01;;;;;;;53.88;28.33;;;;;;;;;;5137194;28;20194;-51
2021/01/10 03:23:28;;;;;;;50.25;25.05;;;;;;;;;;5136823;28;20254;-54
2021/01/10 03:25:55;;;;;;;45.42;25.75;;;;;;;;;;5136845;28;20179;-46
2021/01/10 03:28:23;;;;;;;53.25;26.92;;;;;;;;;;5132033;28;20198;-49
2021/01/10 03:30:49;;;;;;;51.70;25.67;;;;;;;;;;5116820;28;20192;-51
2021/01/10 03:33:16;;;;;;;49.38;26.70;;;;;;;;;;5116336;28;20187;-46
2021/01/10 03:35:54;;;;;;;41.95;23.27;;;;;;;;;;5116645;28;20190;-48
2021/01/10 03:38:21;;;;;;;43.30;23.10;;;;;;;;;;5116372;28;20214;-48
2021/01/10 03:40:48;;;;;;;39.20;23.85;;;;;;;;;;5116499;28;20203;-54
2021/01/10 03:46:19;;;;;;;47.35;25.15;;;;;;;;;;5135294;28;20226;-50
2021/01/10 03:48:46;;;;;;;42.85;23.65;;;;;;;;;;5137042;28;20188;-53
2021/01/10 03:51:12;;;;;;;46.20;22.80;;;;;;;;;;5136937;28;20210;-50
2021/01/10 03:56:43;;;;;;;48.25;25.58;;;;;;;;;;5137913;28;20174;-53
2021/01/10 03:59:10;;;;;;;50.13;25.52;;;;;;;;;;5138057;28;20191;-49
2021/01/10 04:01:38;;;;;;;46.45;27.40;;;;;;;;;;5137617;28;20191;-54
2021/01/10 04:04:05;;;;;;;62.17;27.65;;;;;;;;;;5119632;28;20216;-53
2021/01/10 04:06:31;;;;;;;55.63;26.33;;;;;;;;;;5116397;28;20191;-45
2021/01/10 04:09:01;;;;;;;45.15;23.75;;;;;;;;;;5129146;28;20359;-53
2021/01/10 04:11:27;;;;;;;48.33;25.02;;;;;;;;;;5135020;28;20210;-53
2021/01/10 04:13:54;;;;;;;45.45;25.80;;;;;;;;;;5116617;28;20204;-53
2021/01/10 04:16:21;;;;;;;43.70;25.40;;;;;;;;;;5118192;28;20213;-54
2021/01/10 04:18:48;;;;;;;47.42;24.42;;;;;;;;;;5116514;28;20199;-44
2021/01/10 04:21:16;;;;;;;42.95;24.10;;;;;;;;;;5116403;28;20203;-50
2021/01/10 04:23:45;;;;;;;48.67;26.33;;;;;;;;;;5116783;28;20215;-52
2021/01/10 04:26:14;;;;;;;44.75;25.02;;;;;;;;;;5115562;28;20250;-52
2021/01/10 04:28:41;;;;;;;48.08;24.52;;;;;;;;;;5136460;28;20207;-53
2021/01/10 04:31:13;;;;;;;49.55;26.33;;;;;;;;;;5140679;28;20205;-57
2021/01/10 04:33:41;;;;;;;51.20;26.50;;;;;;;;;;5132993;28;20214;-47
2021/01/10 04:36:09;;;;;;;45.90;26.30;;;;;;;;;;5121093;28;20195;-48
2021/01/10 04:41:40;;;;;;;46.42;24.65;;;;;;;;;;5123144;28;20229;-54
2021/01/10 04:44:07;;;;;;;48.22;24.90;;;;;;;;;;5124379;28;20235;-48
2021/01/10 04:47:02;;;;;;;44.42;24.67;;;;;;;;;;5120743;28;20219;-49
2021/01/10 04:49:29;;;;;;;50.13;23.63;;;;;;;;;;5100301;28;20197;-51
2021/01/10 04:51:57;;;;;;;49.42;25.92;;;;;;;;;;5100392;28;20181;-47
2021/01/10 04:54:44;;;;;;;44.92;24.38;;;;;;;;;;5099767;28;20192;-50
2021/01/10 04:57:12;;;;;;;56.05;27.55;;;;;;;;;;5099804;28;20192;-52
2021/01/10 04:59:39;;;;;;;48.53;25.75;;;;;;;;;;5099548;28;20190;-52
2021/01/10 05:02:24;;;;;;;48.17;23.40;;;;;;;;;;5099392;28;20203;-51
2021/01/10 05:04:51;;;;;;;46.92;27.50;;;;;;;;;;5126504;28;20226;-54
2021/01/10 05:07:19;;;;;;;49.33;25.73;;;;;;;;;;5139917;28;20190;-52
2021/01/10 05:09:45;;;;;;;42.63;24.52;;;;;;;;;;5138949;28;20195;-55
2021/01/10 05:12:12;;;;;;;48.10;25.17;;;;;;;;;;5139443;28;20214;-53
2021/01/10 05:14:41;;;;;;;48.08;23.75;;;;;;;;;;5139531;28;20226;-56
2021/01/10 05:17:17;;;;;;;46.65;23.55;;;;;;;;;;5139852;28;20213;-56
2021/01/10 05:19:46;;;;;;;44.55;23.38;;;;;;;;;;5139709;28;20271;-51
2021/01/10 05:22:13;;;;;;;45.10;23.48;;;;;;;;;;5139511;28;20213;-52
2021/01/10 05:24:41;;;;;;;51.80;25.63;;;;;;;;;;5137430;28;20233;-49
2021/01/10 05:27:08;;;;;;;47.88;25.10;;;;;;;;;;5139068;28;20207;-54
2021/01/10 05:29:35;;;;;;;42.63;24.90;;;;;;;;;;5139458;28;20255;-49
2021/01/10 05:32:02;;;;;;;44.55;22.95;;;;;;;;;;5139996;28;20189;-48
2021/01/10 05:35:05;;;;;;;57.20;25.48;;;;;;;;;;5125445;28;20199;-55
2021/01/10 05:37:32;;;;;;;46.55;27.30;;;;;;;;;;5118661;28;20203;-54
2021/01/10 05:39:59;;;;;;;51.22;25.98;;;;;;;;;;5118223;28;20199;-51
2021/01/10 05:42:50;;;;;;;52.33;26.25;;;;;;;;;;5118881;28;20208;-56
2021/01/10 05:45:31;;;;;;;49.70;25.77;;;;;;;;;;5119077;28;20207;-51
2021/01/10 05:47:58;;;;;;;54.70;27.48;;;;;;;;;;5119470;28;20204;-53
2021/01/10 05:50:24;;;;;;;55.30;25.50;;;;;;;;;;5119808;28;20184;-50
2021/01/10 05:52:52;;;;;;;47.88;26.92;;;;;;;;;;5119098;28;20187;-52
2021/01/10 05:55:27;;;;;;;52.17;27.20;;;;;;;;;;5119129;28;20215;-49
2021/01/10 05:57:54;;;;;;;46.15;23.73;;;;;;;;;;5119159;28;20195;-49
2021/01/10 06:00:30;;;;;;;49.42;25.80;;;;;;;;;;5118776;28;20249;-51
2021/01/10 06:03:00;;;;;;;48.80;26.88;;;;;;;;;;5100409;28;20208;-52
2021/01/10 06:05:26;;;;;;;68.25;30.05;;;;;;;;;;5118267;28;20212;-50
2021/01/10 06:07:59;;;;;;;51.13;27.75;;;;;;;;;;5118883;28;20196;-55
2021/01/10 06:10:27;;;;;;;46.40;26.60;;;;;;;;;;5118375;28;20215;-50
2021/01/10 06:13:02;;;;;;;54.50;27.73;;;;;;;;;;5118534;28;20187;-45
2021/01/10 06:15:50;;;;;;;46.70;27.13;;;;;;;;;;5118327;28;20201;-54
2021/01/10 06:18:17;;;;;;;47.70;26.33;;;;;;;;;;5135079;28;20234;-55
2021/01/10 06:20:44;;;;;;;52.42;26.40;;;;;;;;;;5134028;28;20207;-45
2021/01/10 06:23:13;;;;;;;47.55;27.10;;;;;;;;;;5117911;28;20214;-51
2021/01/10 06:25:43;;;;;;;45.95;23.83;;;;;;;;;;5130332;28;20231;-51
2021/01/10 06:28:11;;;;;;;47.60;26.92;;;;;;;;;;5131022;28;20203;-56
2021/01/10 06:33:41;;;;;;;46.85;24.05;;;;;;;;;;5129829;28;20222;-52
2021/01/10 06:36:09;;;;;;;54.33;24.02;;;;;;;;;;5139083;28;20448;-52
2021/01/10 06:38:36;;;;;;;54.50;26.63;;;;;;;;;;5138426;28;20198;-48
2021/01/10 06:41:16;;;;;;;48.95;24.90;;;;;;;;;;5138313;28;20194;-51
2021/01/10 06:43:51;;;;;;;46.95;25.27;;;;;;;;;;5138790;28;20215;-52
2021/01/10 06:46:17;;;;;;;52.95;27.08;;;;;;;;;;5128713;28;20206;-49
2021/01/10 06:48:44;;;;;;;48.83;26.10;;;;;;;;;;5120065;28;20196;-49
2021/01/10 06:51:12;;;;;;;48.80;25.80;;;;;;;;;;5119886;28;20194;-55
2021/01/10 06:53:39;;;;;;;49.28;23.70;;;;;;;;;;5130161;28;20198;-51
2021/01/10 06:59:10;;;;;;;51.20;26.02;;;;;;;;;;5137941;28;20177;-53
2021/01/10 07:01:57;;;;;;;50.28;26.83;;;;;;;;;;5137976;28;20576;-52
2021/01/10 07:04:24;;;;;;;43.03;23.00;;;;;;;;;;5137645;28;20243;-53
2021/01/10 07:06:51;;;;;;;51.13;26.48;;;;;;;;;;5137553;28;20182;-55
2021/01/10 07:09:24;;;;;;;52.35;25.50;;;;;;;;;;5137876;28;20217;-55
2021/01/10 07:11:51;;;;;;;53.25;28.02;;;;;;;;;;5135584;28;20231;-50
2021/01/10 07:14:26;;;;;;;50.10;25.73;;;;;;;;;;5137394;28;20263;-56
2021/01/10 07:17:11;;;;;;;50.03;25.88;;;;;;;;;;5136897;28;20210;-50
2021/01/10 07:19:41;;;;;;;53.75;25.70;;;;;;;;;;5124434;28;20210;-52
2021/01/10 07:22:27;;;;;;;52.42;26.65;;;;;;;;;;5137172;28;20224;-51
2021/01/10 07:24:54;;;;;;;56.28;26.88;;;;;;;;;;5137645;28;20279;-58
2021/01/10 07:27:43;;;;;;;56.03;27.75;;;;;;;;;;5137531;28;20244;-51
2021/01/10 07:30:24;;;;;;;50.78;26.58;;;;;;;;;;5131764;28;20210;-50
2021/01/10 07:33:20;;;;;;;48.42;25.20;;;;;;;;;;5137967;28;20203;-49
2021/01/10 07:35:58;;;;;;;50.60;27.02;;;;;;;;;;5137812;27;20186;-58
2021/01/10 07:38:26;;;;;;;54.58;28.75;;;;;;;;;;5138206;27;20245;-54
2021/01/10 07:40:53;;;;;;;50.35;27.75;;;;;;;;;;5137902;28;20229;-55
2021/01/10 07:43:20;;;;;;;48.58;25.67;;;;;;;;;;5136990;28;20245;-57
2021/01/10 07:45:52;;;;;;;43.65;24.33;;;;;;;;;;5137211;27;20184;-51
2021/01/10 07:48:31;;;;;;;54.10;26.48;;;;;;;;;;5117044;28;20215;-45
2021/01/10 07:51:15;;;;;;;59.70;25.33;;;;;;;;;;5116945;28;20202;-57
2021/01/10 07:53:48;;;;;;;55.90;26.85;;;;;;;;;;5132838;28;20203;-58
2021/01/10 07:56:16;;;;;;;51.00;24.85;;;;;;;;;;5136962;28;20198;-54
2021/01/10 07:59:15;;;;;;;51.10;27.85;;;;;;;;;;5136737;28;20275;-51
2021/01/10 08:01:49;;;;;;;56.28;25.95;;;;;;;;;;5054835;28;20206;-53
2021/01/10 08:04:30;;;;;;;51.85;25.60;;;;;;;;;;5122525;28;20216;-51
2021/01/10 08:06:58;;;;;;;63.10;26.83;;;;;;;;;;5148683;28;20437;-55
2021/01/10 08:09:42;;;;;;;51.80;26.95;;;;;;;;;;5157706;28;20186;-56
2021/01/10 08:12:09;;;;;;;47.90;26.40;;;;;;;;;;5145353;28;20224;-53
2021/01/10 08:14:36;;;;;;;46.22;24.52;;;;;;;;;;5136847;28;20222;-54
2021/01/10 08:17:17;;;;;;;47.15;25.35;;;;;;;;;;5136836;28;20204;-53
2021/01/10 08:19:44;;;;;;;59.33;25.63;;;;;;;;;;5116607;28;20186;-61
2021/01/10 08:22:15;;;;;;;54.63;25.17;;;;;;;;;;5116526;28;20248;-53
2021/01/10 08:24:42;;;;;;;44.85;25.45;;;;;;;;;;5130139;28;20245;-52
2021/01/10 08:27:09;;;;;;;44.92;25.23;;;;;;;;;;5143360;28;20194;-55
2021/01/10 08:30:04;;;;;;;45.35;24.00;;;;;;;;;;5131806;28;20202;-55
2021/01/10 08:32:33;;;;;;;48.88;24.85;;;;;;;;;;5116541;28;20200;-54
2021/01/10 08:35:01;;;;;;;46.42;25.40;;;;;;;;;;5130975;28;20206;-59
2021/01/10 08:38:04;;;;;;;47.50;24.42;;;;;;;;;;5136736;27;20194;-54
2021/01/10 08:40:31;;;;;;;45.95;24.45;;;;;;;;;;5135913;28;20198;-48
2021/01/10 08:43:02;;;;;;;42.38;23.75;;;;;;;;;;5119343;28;20287;-55
2021/01/10 08:45:43;;;;;;;45.15;24.83;;;;;;;;;;5136091;28;20230;-52
2021/01/10 08:48:13;;;;;;;42.45;24.05;;;;;;;;;;5132623;28;20203;-52
2021/01/10 08:50:41;;;;;;;49.10;23.88;;;;;;;;;;5115974;28;20197;-51
2021/01/10 08:53:12;;;;;;;47.75;24.55;;;;;;;;;;5135476;28;20228;-58
2021/01/10 08:55:41;;;;;;;52.92;27.17;;;;;;;;;;5141549;28;20225;-56
2021/01/10 08:58:08;;;;;;;56.83;26.35;;;;;;;;;;5136812;28;20270;-49
2021/01/10 09:00:36;;;;;;;51.90;25.70;;;;;;;;;;5117848;28;20255;-50
2021/01/10 09:03:24;;;;;;;53.45;26.15;;;;;;;;;;5116200;28;20287;-52
2021/01/10 09:08:59;;;;;;;38.28;22.83;;;;;;;;;;5134064;28;20241;-52
2021/01/10 09:11:34;;;;;;;42.40;24.15;;;;;;;;;;5136334;28;20207;-53
2021/01/10 09:17:09;;;;;;;41.83;23.88;;;;;;;;;;5138398;28;20247;-56
2021/01/10 09:19:37;;;;;;;43.97;24.60;;;;;;;;;;5123262;28;20221;-58
2021/01/10 09:22:11;;;;;;;37.22;21.70;;;;;;;;;;5132398;27;20206;-57
2021/01/10 09:24:50;;;;;;;49.42;24.23;;;;;;;;;;5140659;27;20241;-52
2021/01/10 09:27:18;;;;;;;40.03;22.50;;;;;;;;;;5124311;28;20212;-49
2021/01/10 09:29:44;;;;;;;43.97;23.48;;;;;;;;;;5121676;28;20590;-57
2021/01/10 09:32:20;;;;;;;46.60;23.98;;;;;;;;;;5139548;28;20206;-55
2021/01/10 09:34:56;;;;;;;41.58;23.77;;;;;;;;;;5140061;28;20191;-49
2021/01/10 09:37:27;;;;;;;43.67;25.38;;;;;;;;;;5140053;28;20187;-46
2021/01/10 09:39:55;;;;;;;43.88;21.92;;;;;;;;;;5139847;28;20192;-56
2021/01/10 09:45:33;;;;;;;50.67;23.98;;;;;;;;;;5136833;27;21138;-52
2021/01/10 09:48:01;;;;;;;43.55;25.15;;;;;;;;;;5139397;28;20292;-53
2021/01/10 09:50:44;;;;;;;44.85;25.70;;;;;;;;;;5139502;28;20211;-59
2021/01/10 09:53:24;;;;;;;47.55;26.33;;;;;;;;;;5131421;28;20215;-54
2021/01/10 09:55:52;;;;;;;51.97;26.63;;;;;;;;;;5118980;28;20188;-48
2021/01/10 09:58:19;;;;;;;58.53;28.15;;;;;;;;;;5119021;28;20192;-48
2021/01/10 10:00:58;;;;;;;46.67;25.38;;;;;;;;;;5153129;27;20198;-51
2021/01/10 10:03:25;;;;;;;48.75;25.40;;;;;;;;;;5154283;27;20198;-49
2021/01/10 10:05:58;;;;;;;45.38;25.27;;;;;;;;;;5121026;27;20192;-50
2021/01/10 10:08:28;;;;;;;44.53;24.88;;;;;;;;;;5131598;28;20413;-52
2021/01/10 10:10:55;;;;;;;37.85;22.02;;;;;;;;;;5134156;28;20192;-49
2021/01/10 10:13:27;;;;;;;37.58;23.55;;;;;;;;;;5129752;28;20184;-56
2021/01/10 10:16:30;;;;;;;44.67;24.90;;;;;;;;;;5120890;28;20213;-55
2021/01/10 10:18:58;;;;;;;37.78;22.08;;;;;;;;;;5132941;28;20236;-55
2021/01/10 10:21:25;;;;;;;40.45;23.95;;;;;;;;;;5139419;28;20213;-50
2021/01/10 10:24:19;;;;;;;38.05;23.50;;;;;;;;;;5138791;28;20206;-48
2021/01/10 10:26:47;;;;;;;40.08;23.98;;;;;;;;;;5136462;28;20233;-50
2021/01/10 10:29:14;;;;;;;43.58;25.08;;;;;;;;;;5139533;28;20255;-47
2021/01/10 10:31:41;;;;;;;43.97;25.55;;;;;;;;;;5138762;28;20195;-56
2021/01/10 10:34:07;;;;;;;50.92;27.17;;;;;;;;;;5128639;28;20218;-53
2021/01/10 10:36:36;;;;;;;46.42;25.30;;;;;;;;;;5138303;28;20187;-52
2021/01/10 10:39:18;;;;;;;44.80;26.60;;;;;;;;;;5142641;27;20213;-53
2021/01/10 10:41:46;;;;;;;50.03;26.52;;;;;;;;;;5158666;27;20213;-50
2021/01/10 10:44:13;;;;;;;46.17;27.38;;;;;;;;;;5141882;27;20239;-49
2021/01/10 10:47:16;;;;;;;57.10;30.83;;;;;;;;;;5139852;27;20195;-56
2021/01/10 10:49:44;;;;;;;49.55;27.95;;;;;;;;;;5141125;27;20222;-49
2021/01/10 10:52:11;;;;;;;49.05;26.85;;;;;;;;;;5158498;27;20183;-52
2021/01/10 10:54:47;;;;;;;44.40;26.67;;;;;;;;;;5158676;27;20191;-52
2021/01/10 10:57:17;;;;;;;51.33;28.75;;;;;;;;;;5149457;27;20191;-50
2021/01/10 10:59:44;;;;;;;43.78;26.60;;;;;;;;;;5158669;27;20188;-54
2021/01/10 11:02:11;;;;;;;43.50;27.08;;;;;;;;;;5157720;27;20194;-55
2021/01/10 11:04:39;;;;;;;50.28;27.52;;;;;;;;;;5157548;27;20245;-55
2021/01/10 11:07:06;;;;;;;54.72;29.90;;;;;;;;;;5157759;27;20185;-50
2021/01/10 11:09:34;;;;;;;45.22;26.67;;;;;;;;;;5158346;27;20247;-57
2021/01/10 11:12:01;;;;;;;51.28;26.98;;;;;;;;;;5158571;27;20302;-55
2021/01/10 11:14:28;;;;;;;48.45;28.13;;;;;;;;;;5152370;27;20238;-53
2021/01/10 11:17:00;;;;;;;44.13;27.35;;;;;;;;;;5137818;28;20190;-56
2021/01/10 11:19:27;;;;;;;48.25;26.20;;;;;;;;;;5137246;28;20217;-52
2021/01/10 11:21:54;;;;;;;42.45;25.23;;;;;;;;;;5137320;28;20203;-53
2021/01/10 11:24:39;;;;;;;37.10;22.25;;;;;;;;;;5153737;27;20219;-52
2021/01/10 11:27:07;;;;;;;46.33;25.83;;;;;;;;;;5157378;27;20225;-49
2021/01/10 11:29:35;;;;;;;49.90;26.83;;;;;;;;;;5156785;27;20203;-54
2021/01/10 11:32:10;;;;;;;44.83;26.80;;;;;;;;;;5157944;27;20191;-45
2021/01/10 11:34:55;;;;;;;42.25;23.63;;;;;;;;;;5157809;27;20195;-56
2021/01/10 11:37:43;;;;;;;45.42;25.10;;;;;;;;;;5157350;27;20282;-55
2021/01/10 11:40:12;;;;;;;44.95;24.95;;;;;;;;;;5157566;27;20217;-53
2021/01/10 11:42:39;;;;;;;41.05;23.60;;;;;;;;;;5142245;27;20193;-54
2021/01/10 11:45:11;;;;;;;40.90;25.45;;;;;;;;;;5137439;28;20209;-53
2021/01/10 11:47:38;;;;;;;42.42;23.77;;;;;;;;;;5135695;28;20351;-57
2021/01/10 11:50:05;;;;;;;45.88;26.25;;;;;;;;;;5137287;28;20230;-59
2021/01/10 11:52:33;;;;;;;45.78;24.65;;;;;;;;;;5152814;27;20185;-54
2021/01/10 11:55:00;;;;;;;46.35;26.30;;;;;;;;;;5155373;27;20222;-51
2021/01/10 11:57:28;;;;;;;41.70;25.15;;;;;;;;;;5157500;27;20198;-51
2021/01/10 12:00:20;;;;;;;51.38;26.20;;;;;;;;;;5149618;27;20253;-54
2021/01/10 12:02:47;;;;;;;42.20;25.33;;;;;;;;;;5141878;27;20303;-51
2021/01/10 12:05:14;;;;;;;39.35;22.38;;;;;;;;;;5142164;27;20230;-53
2021/01/10 12:07:51;;;;;;;48.08;25.38;;;;;;;;;;5140371;27;20188;-50
2021/01/10 12:10:18;;;;;;;40.95;26.08;;;;;;;;;;5154531;28;20194;-54
2021/01/10 12:12:44;;;;;;;45.80;25.42;;;;;;;;;;5144756;28;20215;-53
2021/01/10 12:15:13;;;;;;;34.25;23.92;;;;;;;;;;5142911;28;20214;-52
2021/01/10 12:17:40;;;;;;;42.45;25.38;;;;;;;;;;5125950;28;20207;-50
2021/01/10 12:20:08;;;;;;;45.50;26.02;;;;;;;;;;5131961;28;20211;-58
2021/01/10 12:22:41;;;;;;;37.75;23.15;;;;;;;;;;5133692;28;20226;-55
2021/01/10 12:25:09;;;;;;;41.20;24.05;;;;;;;;;;5115662;28;20231;-50
2021/01/10 12:27:36;;;;;;;36.70;24.35;;;;;;;;;;5115958;28;20199;-54
2021/01/10 12:30:35;;;;;;;39.30;23.50;;;;;;;;;;5130542;28;20207;-52
2021/01/10 12:33:02;;;;;;;37.22;23.58;;;;;;;;;;5130477;27;20230;-54
2021/01/10 12:35:30;;;;;;;41.08;22.02;;;;;;;;;;5137302;28;20192;-51
2021/01/10 12:37:57;;;;;;;37.83;22.20;;;;;;;;;;5135574;28;20214;-54
2021/01/10 12:40:24;;;;;;;33.05;19.52;;;;;;;;;;5128979;28;20209;-56
2021/01/10 12:42:55;;;;;;;38.97;21.85;;;;;;;;;;5114692;28;20177;-56
2021/01/10 12:45:22;;;;;;;33.17;18.77;;;;;;;;;;5115348;28;20212;-57
2021/01/10 12:47:49;;;;;;;39.35;21.92;;;;;;;;;;5147026;27;20210;-57
2021/01/10 12:50:52;;;;;;;36.55;21.60;;;;;;;;;;5142656;27;20205;-59
2021/01/10 12:53:23;;;;;;;35.25;21.48;;;;;;;;;;5134772;28;20209;-53
2021/01/10 12:55:51;;;;;;;34.88;21.25;;;;;;;;;;5135820;28;20206;-46
2021/01/10 12:58:18;;;;;;;41.08;22.42;;;;;;;;;;5118021;28;20273;-50
2021/01/10 13:00:45;;;;;;;35.72;20.55;;;;;;;;;;5128184;27;20204;-51
2021/01/10 13:03:12;;;;;;;37.72;21.88;;;;;;;;;;5149410;27;20211;-53
2021/01/10 13:05:45;;;;;;;38.55;23.27;;;;;;;;;;5128521;28;20195;-54
2021/01/10 13:08:13;;;;;;;36.05;19.65;;;;;;;;;;5123348;27;20199;-49
2021/01/10 13:10:41;;;;;;;32.67;21.08;;;;;;;;;;5135309;27;20196;-52
2021/01/10 13:13:08;;;;;;;33.22;19.67;;;;;;;;;;5122841;28;20223;-51
2021/01/10 13:15:35;;;;;;;47.60;23.30;;;;;;;;;;5119592;28;20213;-54
2021/01/10 13:18:06;;;;;;;39.08;20.38;;;;;;;;;;5139197;28;20208;-54
2021/01/10 13:20:34;;;;;;;36.58;22.10;;;;;;;;;;5145734;27;20187;-53
2021/01/10 13:23:01;;;;;;;41.95;21.50;;;;;;;;;;5132960;27;20190;-54
2021/01/10 13:25:40;;;;;;;35.50;20.77;;;;;;;;;;5138430;27;20279;-55
2021/01/10 13:28:07;;;;;;;39.25;21.52;;;;;;;;;;5148334;27;20239;-51
2021/01/10 13:30:35;;;;;;;41.08;22.65;;;;;;;;;;5120053;28;20239;-53
2021/01/10 13:33:10;;;;;;;33.80;19.25;;;;;;;;;;5127723;28;20225;-53
2021/01/10 13:35:37;;;;;;;37.97;21.02;;;;;;;;;;5134719;27;20235;-55
2021/01/10 13:38:04;;;;;;;35.67;20.05;;;;;;;;;;5158185;27;20256;-51
2021/01/10 13:40:31;;;;;;;37.63;22.63;;;;;;;;;;5159393;27;20210;-51
2021/01/10 13:43:01;;;;;;;39.92;20.85;;;;;;;;;;5152761;27;20198;-52
2021/01/10 13:45:47;;;;;;;36.22;22.63;;;;;;;;;;5154520;27;20299;-54
2021/01/10 13:48:14;;;;;;;33.13;19.88;;;;;;;;;;5143171;27;20204;-57
2021/01/10 13:50:41;;;;;;;37.50;21.60;;;;;;;;;;5143424;27;20187;-58
2021/01/10 13:53:25;;;;;;;39.50;22.98;;;;;;;;;;5159765;27;20254;-46
2021/01/10 13:55:52;;;;;;;38.03;21.23;;;;;;;;;;5148819;27;20230;-48
2021/01/10 13:58:19;;;;;;;37.60;19.80;;;;;;;;;;5139903;27;20202;-54
2021/01/10 14:00:51;;;;;;;35.78;20.70;;;;;;;;;;5155541;27;20231;-50
2021/01/10 14:03:18;;;;;;;36.65;20.15;;;;;;;;;;5150987;27;20203;-54
2021/01/10 14:05:52;;;;;;;37.20;22.05;;;;;;;;;;5151061;27;20199;-55
2021/01/10 14:08:19;;;;;;;46.85;27.67;;;;;;;;;;5158722;27;20190;-48
2021/01/10 14:10:47;;;;;;;40.08;22.30;;;;;;;;;;5145680;27;20215;-53
2021/01/10 14:13:32;;;;;;;36.28;20.65;;;;;;;;;;5157672;27;20186;-54
2021/01/10 14:16:06;;;;;;;37.15;20.95;;;;;;;;;;5156265;27;20234;-53
2021/01/10 14:18:33;;;;;;;39.17;19.73;;;;;;;;;;5154087;27;20195;-54
2021/01/10 14:21:11;;;;;;;37.28;19.60;;;;;;;;;;5151568;27;20310;-58
2021/01/10 14:23:39;;;;;;;34.05;19.52;;;;;;;;;;5135163;27;20673;-54
2021/01/10 14:26:06;;;;;;;35.42;20.10;;;;;;;;;;5138402;27;20259;-55
2021/01/10 14:28:43;;;;;;;34.58;20.02;;;;;;;;;;5156979;27;20275;-55
2021/01/10 14:31:11;;;;;;;37.90;20.85;;;;;;;;;;5140515;27;20321;-47
2021/01/10 14:33:38;;;;;;;37.30;20.70;;;;;;;;;;5137164;28;20255;-53
2021/01/10 14:36:08;;;;;;;47.67;25.42;;;;;;;;;;5146573;27;20233;-52
2021/01/10 14:38:39;;;;;;;47.47;26.67;;;;;;;;;;5141041;27;20225;-52
2021/01/10 14:41:19;;;;;;;36.80;19.05;;;;;;;;;;5149143;27;20253;-53
2021/01/10 14:43:45;;;;;;;36.10;19.27;;;;;;;;;;5150627;27;20231;-56
2021/01/10 14:46:16;;;;;;;30.98;16.88;;;;;;;;;;5134898;28;20269;-52
2021/01/10 14:49:05;;;;;;;37.00;20.30;;;;;;;;;;5140177;27;20203;-54
2021/01/10 14:51:33;;;;;;;27.27;16.15;;;;;;;;;;5146845;27;20279;-49
2021/01/10 14:54:12;;;;;;;37.95;18.45;;;;;;;;;;5148761;27;20187;-53
2021/01/10 14:56:41;;;;;;;34.47;18.70;;;;;;;;;;5154249;27;20196;-51
2021/01/10 14:59:08;;;;;;;31.50;18.13;;;;;;;;;;5157744;27;20250;-53
2021/01/10 15:01:37;;;;;;;30.55;16.25;;;;;;;;;;5151002;27;20217;-53
2021/01/10 15:04:09;;;;;;;31.13;17.13;;;;;;;;;;5162897;27;20257;-49